Refugiado, Brazil
Current Conditions -  °F | °C
As of 10:00 AM on Thursday 29 Jan 2015 (Local Time) from SBCO Reporting Station
Heavy Rain Heavy Rain  
Wind Chill: 73°   Ceiling: 1200
Heat Index: 73°   Visibility: 0.93mi
Dew Point: 73°   Wind: 8mph
Humidity: 100%   Direction: 300°WNW
Pressure: 29.77"   Gusts: NA
Location:  28.67°S, 50.92°W
Report Text: SBCO 291200Z 30007KT 1500 R30/1500 R12/1500 +RA SCT006 BKN012 SCT030TCU OVC040 23/23 Q1008
Loading
Personal Weather Stations






























Interactive Weather Map New forecast layout! Learn more

10-Day Weather Forecast

Advertisements
Track Severe Weather on mobile